WetterOnline ( https://www.wetteronline.de )

Wetter aktuell Damme

Aktuelles Wetter: Belm (103m)

6-stündlich | Neueste Meldungen
Ortszeit Temperatur Wetter
Di, 27.07. 2:00 18.0° C bedeckt
Mo, 26.07. 20:00 23.9° C wolkig
Mo, 26.07. 14:00 25.8° C leicht bewölkt
Mo, 26.07. 8:00 19.1° C bedeckt
Mo, 26.07. 2:00 18.0° C leicht bewölkt
So, 25.07. 20:00 24.3° C leicht bewölkt
So, 25.07. 14:00 25.0° C wolkig
So, 25.07. 8:00 17.9° C fast wolkenlos
Ortszeit Temperatur Wetter
Di, 27.07. 5:00 17.3° C bewölkt
Di, 27.07. 4:50 17.3° C bewölkt
Di, 27.07. 4:40 17.4° C bewölkt
Di, 27.07. 4:30 17.0° C bedeckt
Di, 27.07. 4:20 17.0° C bedeckt
Di, 27.07. 4:10 17.0° C wolkig
Di, 27.07. 4:00 17.2° C wolkig
Di, 27.07. 3:30 16.9° C wolkig
Di, 27.07. 3:00 17.4° C bedeckt
Di, 27.07. 2:30 17.6° C bewölkt
Di, 27.07. 2:00 18.0° C bedeckt
Ortszeit Relative Feuchte Sichtweite
Di, 27.07. 2:00 85% 55 km
Mo, 26.07. 20:00 55% 60 km
Mo, 26.07. 14:00 50% >70 km
Mo, 26.07. 8:00 79% 60 km
Mo, 26.07. 2:00 84% 60 km
So, 25.07. 20:00 61% 60 km
So, 25.07. 14:00 56% 65 km
So, 25.07. 8:00 91% 7 km
Ortszeit Relative Feuchte Sichtweite
Di, 27.07. 5:00 89% 20 km
Di, 27.07. 4:50 89% -
Di, 27.07. 4:40 87% -
Di, 27.07. 4:30 88% 30 km
Di, 27.07. 4:20 88% -
Di, 27.07. 4:10 88% -
Di, 27.07. 4:00 86% 35 km
Di, 27.07. 3:30 88% 30 km
Di, 27.07. 3:00 87% 40 km
Di, 27.07. 2:30 87% 45 km
Di, 27.07. 2:00 85% 55 km
Ortszeit Niederschlagsmenge Niederschlagsart
Di, 27.07. 2:00 0.1 l/m2 in 6 Std. Regen
Mo, 26.07. 20:00 0.0 l/m2 in 12 Std. -
Mo, 26.07. 14:00 0.0 l/m2 in 6 Std. -
Mo, 26.07. 8:00 0.0 l/m2 in 12 Std. -
Mo, 26.07. 2:00 0.0 l/m2 in 6 Std. -
So, 25.07. 20:00 0.1 l/m2 in 12 Std. Regen
So, 25.07. 14:00 0.0 l/m2 in 6 Std. -
So, 25.07. 8:00 3 l/m2 in 12 Std. -
Ortszeit Niederschlagsmenge Niederschlagsart
Di, 27.07. 5:00 0.0 l/m2 in 1 Std. -
Di, 27.07. 4:50 keine Meldung -
Di, 27.07. 4:40 keine Meldung -
Di, 27.07. 4:30 0.0 l/m2 in 1 Std. -
Di, 27.07. 4:20 keine Meldung -
Di, 27.07. 4:10 keine Meldung -
Di, 27.07. 4:00 0.0 l/m2 in 1 Std. -
Di, 27.07. 3:30 0.0 l/m2 in 1 Std. -
Di, 27.07. 3:00 0.0 l/m2 in 1 Std. -
Di, 27.07. 2:30 0.0 l/m2 in 1 Std. -
Di, 27.07. 2:00 0.0 l/m2 in 1 Std. Regen
Ortszeit Stärke Spitze Richtung
km/h Bft. km/h Grad Sektor
Di, 27.07. 2:00 4 1 22 150° SO
Mo, 26.07. 20:00 14 3 36 220° SW
Mo, 26.07. 14:00 14 3 32 240° SW
Mo, 26.07. 8:00 9 2 13 170° S
Mo, 26.07. 2:00 0 0 11 - -
So, 25.07. 20:00 2 1 24 270° W
So, 25.07. 14:00 11 2 29 200° S
So, 25.07. 8:00 7 2 25 150° SO
Ortszeit Stärke Spitze Richtung
km/h Bft. km/h Grad Sektor
Di, 27.07. 5:00 11 2 19 220° SW
Di, 27.07. 4:50 11 2 - 220° SW
Di, 27.07. 4:40 11 2 - 220° SW
Di, 27.07. 4:30 7 2 14 200° S
Di, 27.07. 4:20 7 2 - 200° S
Di, 27.07. 4:10 7 2 - 190° S
Di, 27.07. 4:00 9 2 15 180° S
Di, 27.07. 3:30 7 2 14 200° S
Di, 27.07. 3:00 9 2 15 180° S
Di, 27.07. 2:30 6 1 9 150° SO
Di, 27.07. 2:00 4 1 7 150° SO
Ortszeit Untergrenze Bedeckung Gattung
total tief tief mittel hoch
Di, 27.07. 2:00 3300 m 8/8 8/8 - - -
Mo, 26.07. 20:00 3600 m 6/8 6/8 - - -
Mo, 26.07. 14:00 1380 m 3/8 3/8 - - -
Mo, 26.07. 8:00 3300 m 8/8 8/8 - - -
Mo, 26.07. 2:00 3300 m 2/8 1/8 - - -
So, 25.07. 20:00 3300 m 3/8 3/8 - - -
So, 25.07. 14:00 1110 m 5/8 5/8 - - -
So, 25.07. 8:00 210 m 1/8 1/8 - - -
Ortszeit Bedeckungsgrad in Achtel und Wolkenuntergrenze
Di, 27.07. 5:00 7(300m) 7(720m) 8(3000m)
Di, 27.07. 4:50 7(300m) 7(720m) 8(3000m)
Di, 27.07. 4:40 5(330m) 6(630m) 8(3000m)
Di, 27.07. 4:30 8(3000m) 4(630m) 8(3000m)
Di, 27.07. 4:20 8(3000m)
Di, 27.07. 4:10 1(660m) 8(3300m)
Di, 27.07. 4:00 2(660m) 7(3300m)
Di, 27.07. 3:30 1(2700m) 4(3300m) 7(8700m)
Di, 27.07. 3:00 8(2700m) 8(3900m) 8(9000m)
Di, 27.07. 2:30 5(3000m) 7(3900m) 7(4200m)
Di, 27.07. 2:00 7(3300m) 8(3900m) 8(4800m)
Ortszeit Luftdruck NN (hPa) Tendenz (hPa in 3 Std.)
Di, 27.07. 2:00 1012 + 0,6
Mo, 26.07. 20:00 1010 + 0,1
Mo, 26.07. 14:00 1010 - 0,2
Mo, 26.07. 8:00 1010 + 0,6
Mo, 26.07. 2:00 1010 + 0,2
So, 25.07. 20:00 1008 - 0,4
So, 25.07. 14:00 1009 0,0
So, 25.07. 8:00 1008 + 0,9
Ortszeit Luftdruck NN (hPa) Tendenz (hPa in 3 Std.)
Di, 27.07. 5:00 1011 - 0,3
Di, 27.07. 4:50 1011 keine Meldung
Di, 27.07. 4:40 1011 keine Meldung
Di, 27.07. 4:30 1011 - 0,2
Di, 27.07. 4:20 1011 keine Meldung
Di, 27.07. 4:10 1011 keine Meldung
Di, 27.07. 4:00 1011 - 0,4
Di, 27.07. 3:30 1011 - 0,4
Di, 27.07. 3:00 1011 0,0
Di, 27.07. 2:30 1011 + 0,4
Di, 27.07. 2:00 1012 + 0,6
Ortszeit Schneehöhe (cm)
Di, 27.07. 2:00 -
Mo, 26.07. 20:00 -
Mo, 26.07. 14:00 -
Mo, 26.07. 8:00 -
Mo, 26.07. 2:00 -
So, 25.07. 20:00 -
So, 25.07. 14:00 -
So, 25.07. 8:00 -
Ortszeit Schneehöhe (cm)
Di, 27.07. 5:00 -
Di, 27.07. 4:50 -
Di, 27.07. 4:40 -
Di, 27.07. 4:30 -
Di, 27.07. 4:20 -
Di, 27.07. 4:10 -
Di, 27.07. 4:00 -
Di, 27.07. 3:30 -
Di, 27.07. 3:00 -
Di, 27.07. 2:30 -
Di, 27.07. 2:00 -
Link zu dieser Seite / Seite empfehlen

Das Wetter in ...